This is the latest recevied weather packets stored in our database for station/object N9WHM. If no packets are shown the sender has not sent any weather packets the latest 1 day(s).
| Time | Temp. | Humidity | Pressure | Rain* | Wind** | Luminosity | Snow |
|---|---|---|---|---|---|---|---|
| 1836274827 | 14.44° C | 95% | 1016.1 hPa | 0 mm | 0 m/s | 0 W/m² | - |
| 1836274524 | 14.44° C | 95% | 1016.1 hPa | 0 mm | 0 m/s | 0 W/m² | - |
| 1836274378 | 14.44° C | 95% | 1016.1 hPa | 0 mm | 0 m/s | 0 W/m² | - |
| 1836274223 | 14.44° C | 95% | 1016 hPa | 0 mm | 0.45 m/s, 153° | 0 W/m² | - |
| 1836273922 | 14.44° C | 95% | 1016.1 hPa | 0 mm | 0.89 m/s, 173° | 0 W/m² | - |
| 1778064429 | 1.67° C | 66% | 1017.2 hPa | 0 mm | 0 m/s | 0 W/m² | - |
| 1778064126 | 1.67° C | 65% | 1017.1 hPa | 0 mm | 0 m/s | 0 W/m² | - |
| 1778063823 | 1.67° C | 67% | 1017.1 hPa | 0 mm | 0 m/s | 0 W/m² | - |
| 1778063520 | 2.22° C | 65% | 1017 hPa | 0 mm | 0 m/s | 0 W/m² | - |
| 1778063218 | 1.67° C | 65% | 1016.8 hPa | 0 mm | 0 m/s | 0 W/m² | - |
| 1778062916 | 1.67° C | 65% | 1017 hPa | 0 mm | 0 m/s | 0 W/m² | - |
| 1778062612 | 2.22° C | 64% | 1016.9 hPa | 0 mm | 0 m/s | 0 W/m² | - |
| 1778062309 | 2.22° C | 64% | 1016.9 hPa | 0 mm | 0 m/s | 0 W/m² | - |
| 1778062008 | 2.22° C | 63% | 1016.8 hPa | 0 mm | 0 m/s | 0 W/m² | - |
| 1778061705 | 2.22° C | 64% | 1016.8 hPa | 0 mm | 0 m/s | 0 W/m² | - |
| 1778061404 | 2.22° C | 63% | 1017 hPa | 0 mm | 0 m/s | 0 W/m² | - |
| 1778061100 | 2.22° C | 63% | 1017 hPa | 0 mm | 0 m/s | 0 W/m² | - |
| 1778060797 | 2.22° C | 63% | 1016.9 hPa | 0 mm | 0 m/s | 0 W/m² | - |
| 1778060495 | 2.22° C | 62% | 1017 hPa | 0 mm | 0 m/s | 0 W/m² | - |
| 1778060194 | 2.22° C | 62% | 1016.9 hPa | 0 mm | 0 m/s | 0 W/m² | - |
| 1778059890 | 2.22° C | 62% | 1016.8 hPa | 0 mm | 0 m/s | 0 W/m² | - |
| 1778059588 | 2.78° C | 61% | 1016.5 hPa | 0 mm | 0 m/s | 0 W/m² | - |
| 1778059285 | 2.78° C | 60% | 1016.8 hPa | 0 mm | 0 m/s | 0 W/m² | - |
| 1778058983 | 3.33° C | 59% | 1016.6 hPa | 0 mm | 0 m/s | 0 W/m² | - |
| 1778058680 | 3.33° C | 58% | 1016.6 hPa | 0 mm | 0 m/s | 0 W/m² | - |
* Rain latest hour (hover to see other rain measurements)
** Current wind speed in m/s (hover to see current wind gust speed)